Time;durP1;ratioP1;P1;durP2;ratioP2;P2;SDS_P1;SDS_P2;PMS_P1;PMS_P2;Temp;Humidity;BMP_temperature;BMP_pressure;BME280_temperature;BME280_humidity;BME280_pressure;Samples;Min_cycle;Max_cycle;Signal;HPM_P1;HPM_P2
2023/06/18 00:00:53;;;;;;;11.38;9.82;;;20.50;99.90;;;;;;5071485;28;20032;-61
2023/06/18 00:03:19;;;;;;;10.95;10.02;;;20.50;99.90;;;;;;5071252;28;20086;-62
2023/06/18 00:05:45;;;;;;;10.52;9.73;;;20.40;99.90;;;;;;5071329;28;20039;-61
2023/06/18 00:08:11;;;;;;;11.05;9.95;;;20.40;99.90;;;;;;5071223;28;20017;-62
2023/06/18 00:10:36;;;;;;;11.35;10.25;;;20.40;99.90;;;;;;5071505;28;20071;-61
2023/06/18 00:13:02;;;;;;;11.13;9.85;;;20.20;99.90;;;;;;5071393;28;20050;-62
2023/06/18 00:15:28;;;;;;;11.77;10.68;;;20.20;99.90;;;;;;5071347;28;20039;-61
2023/06/18 00:17:53;;;;;;;11.60;10.10;;;20.10;99.90;;;;;;5071202;28;20028;-62
2023/06/18 00:20:19;;;;;;;11.85;10.38;;;20.00;99.90;;;;;;5071577;28;20029;-61
2023/06/18 00:22:48;;;;;;;11.40;10.40;;;19.90;99.90;;;;;;5070936;28;20017;-61
2023/06/18 00:25:14;;;;;;;11.38;10.38;;;19.80;99.90;;;;;;5071086;28;20074;-61
2023/06/18 00:27:40;;;;;;;11.88;10.95;;;19.80;99.90;;;;;;5071041;28;20025;-62
2023/06/18 00:30:07;;;;;;;11.88;10.88;;;19.80;99.90;;;;;;5071157;28;20120;-61
2023/06/18 00:32:32;;;;;;;12.25;11.25;;;19.80;99.90;;;;;;5071153;28;20052;-61
2023/06/18 00:35:00;;;;;;;11.70;10.75;;;19.70;99.90;;;;;;5071059;28;20455;-62
2023/06/18 00:37:27;;;;;;;12.07;10.98;;;19.70;99.90;;;;;;5071489;28;20048;-61
2023/06/18 00:39:54;;;;;;;12.55;11.38;;;19.60;99.90;;;;;;5071126;28;20029;-61
2023/06/18 00:42:20;;;;;;;12.07;11.00;;;19.60;99.90;;;;;;5071119;28;20059;-61
2023/06/18 00:44:46;;;;;;;12.50;11.00;;;19.60;99.90;;;;;;5071157;28;20044;-62
2023/06/18 00:47:12;;;;;;;12.48;11.20;;;19.60;99.90;;;;;;5070795;28;20037;-61
2023/06/18 00:49:42;;;;;;;12.27;11.05;;;19.50;99.90;;;;;;5071042;28;20024;-61
2023/06/18 00:52:12;;;;;;;11.32;10.38;;;19.60;99.90;;;;;;5071251;28;20037;-61
2023/06/18 00:54:40;;;;;;;12.43;11.20;;;19.70;99.90;;;;;;5075072;28;20027;-62
2023/06/18 00:57:13;;;;;;;12.07;11.05;;;19.80;99.90;;;;;;5075378;28;20025;-61
2023/06/18 00:59:42;;;;;;;12.07;11.07;;;19.90;99.90;;;;;;5074877;28;20017;-61
2023/06/18 01:02:08;;;;;;;11.80;10.60;;;19.90;99.90;;;;;;5074619;28;20195;-61
2023/06/18 01:04:36;;;;;;;11.90;10.80;;;20.00;99.90;;;;;;5074490;28;20083;-61
2023/06/18 01:07:03;;;;;;;11.70;10.40;;;20.00;99.90;;;;;;5075173;28;20020;-62
2023/06/18 01:09:30;;;;;;;11.75;10.73;;;20.00;99.90;;;;;;5074647;28;20196;-62
2023/06/18 01:12:00;;;;;;;11.73;10.63;;;20.00;99.90;;;;;;5074703;28;20024;-61
2023/06/18 01:14:27;;;;;;;11.77;10.68;;;20.00;99.90;;;;;;5074590;28;20031;-62
2023/06/18 01:17:00;;;;;;;11.98;10.98;;;19.90;99.90;;;;;;5074867;28;20516;-61
2023/06/18 01:20:09;;;;;;;11.32;10.43;;;19.90;99.90;;;;;;5074256;28;20577;-61
2023/06/18 01:22:53;;;;;;;11.95;10.80;;;19.80;99.90;;;;;;5074452;28;20024;-62
2023/06/18 01:25:20;;;;;;;11.82;10.73;;;19.70;99.90;;;;;;5073148;28;20562;-61
2023/06/18 01:27:47;;;;;;;12.88;11.50;;;19.60;99.90;;;;;;5074537;28;20020;-61
2023/06/18 01:30:14;;;;;;;12.25;11.02;;;19.60;99.90;;;;;;5074206;28;20418;-61
2023/06/18 01:32:40;;;;;;;12.05;10.90;;;19.50;99.90;;;;;;5073047;28;20064;-61
2023/06/18 01:35:08;;;;;;;12.57;11.43;;;19.40;99.90;;;;;;5073896;28;20535;-61
2023/06/18 01:37:46;;;;;;;12.25;11.15;;;19.30;99.90;;;;;;5074580;28;20377;-62
2023/06/18 01:40:53;;;;;;;12.57;11.35;;;19.30;99.90;;;;;;5074503;28;20028;-62
2023/06/18 01:43:42;;;;;;;12.73;11.52;;;19.30;99.90;;;;;;5069173;28;20489;-61
2023/06/18 01:46:13;;;;;;;12.60;11.32;;;19.30;99.90;;;;;;5073882;28;20116;-61
2023/06/18 01:48:56;;;;;;;12.40;11.30;;;19.20;99.90;;;;;;5073728;28;20032;-61
2023/06/18 01:51:25;;;;;;;13.03;11.87;;;19.20;99.90;;;;;;5074330;28;20114;-61
2023/06/18 01:53:54;;;;;;;14.05;12.75;;;19.20;99.90;;;;;;5074034;28;20622;-61
2023/06/18 01:56:22;;;;;;;12.88;11.70;;;19.20;99.90;;;;;;5073979;28;20135;-61
2023/06/18 01:58:47;;;;;;;12.52;11.43;;;19.20;99.90;;;;;;5073764;28;20060;-61
2023/06/18 02:01:13;;;;;;;12.93;11.73;;;19.10;99.90;;;;;;5073689;28;20063;-62
2023/06/18 02:03:40;;;;;;;13.02;11.93;;;19.20;99.90;;;;;;5073073;28;20028;-62
2023/06/18 02:06:07;;;;;;;13.00;11.60;;;19.30;99.90;;;;;;5073710;28;20082;-61
2023/06/18 02:08:33;;;;;;;12.18;11.07;;;19.30;99.90;;;;;;5072544;28;20025;-61
2023/06/18 02:11:00;;;;;;;13.45;11.13;;;19.40;99.90;;;;;;5073418;28;20116;-61
2023/06/18 02:13:26;;;;;;;12.00;10.85;;;19.50;99.90;;;;;;5073678;28;20405;-61
2023/06/18 02:15:52;;;;;;;12.25;11.15;;;19.60;99.90;;;;;;5073339;28;20033;-62
2023/06/18 02:18:18;;;;;;;12.32;11.10;;;19.60;99.90;;;;;;5073105;28;20062;-62
2023/06/18 02:20:44;;;;;;;12.43;11.20;;;19.60;99.90;;;;;;5073456;28;20032;-61
2023/06/18 02:23:10;;;;;;;12.25;11.13;;;19.60;99.90;;;;;;5073379;28;20017;-61
2023/06/18 02:25:36;;;;;;;12.30;11.20;;;19.70;99.90;;;;;;5073237;28;20626;-61
2023/06/18 02:28:03;;;;;;;11.77;10.68;;;19.70;99.90;;;;;;5073690;28;20013;-61
2023/06/18 02:30:30;;;;;;;13.38;11.38;;;19.70;99.90;;;;;;5072916;28;20044;-62
2023/06/18 02:33:06;;;;;;;13.25;11.93;;;19.60;99.90;;;;;;5072916;28;20400;-61
2023/06/18 02:35:32;;;;;;;12.95;11.65;;;19.50;99.90;;;;;;5072964;28;20035;-61
2023/06/18 02:37:58;;;;;;;12.68;11.52;;;19.40;99.90;;;;;;5073069;28;20020;-61
2023/06/18 02:40:23;;;;;;;13.23;12.00;;;19.30;99.90;;;;;;5072978;28;20503;-61
2023/06/18 02:42:50;;;;;;;13.38;12.05;;;19.20;99.90;;;;;;5073476;28;20101;-61
2023/06/18 02:45:17;;;;;;;13.98;12.68;;;19.10;99.90;;;;;;5071576;28;20032;-61
2023/06/18 02:47:46;;;;;;;13.85;12.45;;;19.10;99.90;;;;;;5072525;28;20024;-61
2023/06/18 02:50:13;;;;;;;14.00;12.70;;;19.00;99.90;;;;;;5072649;28;20036;-61
2023/06/18 02:52:40;;;;;;;13.98;12.55;;;19.00;99.90;;;;;;5071592;28;20131;-61
2023/06/18 02:55:07;;;;;;;13.45;12.25;;;19.00;99.90;;;;;;5073257;28;20025;-61
2023/06/18 02:57:37;;;;;;;13.32;12.23;;;18.90;99.90;;;;;;5072599;28;20055;-62
2023/06/18 03:00:09;;;;;;;13.15;11.95;;;18.90;99.90;;;;;;5072312;28;20025;-61
2023/06/18 03:02:38;;;;;;;13.82;12.32;;;18.80;99.90;;;;;;5072442;28;20537;-61
2023/06/18 03:05:04;;;;;;;13.68;12.38;;;18.80;99.90;;;;;;5072436;28;20060;-61
2023/06/18 03:07:30;;;;;;;14.43;13.10;;;18.70;99.90;;;;;;5072945;28;20436;-62
2023/06/18 03:09:56;;;;;;;13.60;12.45;;;18.70;99.90;;;;;;5072615;28;20036;-61
2023/06/18 03:12:22;;;;;;;14.15;12.70;;;18.70;99.90;;;;;;5072310;28;20031;-62
2023/06/18 03:14:48;;;;;;;13.93;12.63;;;18.80;99.90;;;;;;5072114;28;20024;-61
2023/06/18 03:17:14;;;;;;;14.43;13.02;;;18.80;99.90;;;;;;5071332;28;20046;-61
2023/06/18 03:19:39;;;;;;;13.82;12.52;;;18.90;99.90;;;;;;5072164;28;20493;-61
2023/06/18 03:22:05;;;;;;;13.57;12.38;;;19.00;99.90;;;;;;5072329;28;20048;-61
2023/06/18 03:24:32;;;;;;;13.50;12.10;;;19.00;99.90;;;;;;5071037;28;20427;-61
2023/06/18 03:26:59;;;;;;;13.95;12.57;;;19.00;99.90;;;;;;5072139;28;20025;-61
2023/06/18 03:29:25;;;;;;;13.57;12.27;;;19.00;99.90;;;;;;5071674;28;20021;-61
2023/06/18 03:31:53;;;;;;;13.80;12.50;;;18.90;99.90;;;;;;5072345;28;20067;-61
2023/06/18 03:34:20;;;;;;;14.00;12.60;;;18.90;99.90;;;;;;5072032;28;20016;-61
2023/06/18 03:36:47;;;;;;;13.68;12.48;;;18.90;99.90;;;;;;5071873;28;20024;-61
2023/06/18 03:39:15;;;;;;;13.35;12.20;;;18.90;99.90;;;;;;5071766;28;20703;-61
2023/06/18 03:41:40;;;;;;;13.93;12.73;;;18.90;99.90;;;;;;5071883;28;20059;-62
2023/06/18 03:44:07;;;;;;;14.63;12.77;;;18.90;99.90;;;;;;5071652;28;20035;-61
2023/06/18 03:46:32;;;;;;;14.23;12.98;;;18.80;99.90;;;;;;5071764;28;20028;-61
2023/06/18 03:48:58;;;;;;;14.38;13.18;;;18.70;99.90;;;;;;5071607;28;20028;-61
2023/06/18 03:51:25;;;;;;;14.32;13.13;;;18.60;99.90;;;;;;5072065;28;20064;-61
2023/06/18 03:53:51;;;;;;;14.70;13.40;;;18.50;99.90;;;;;;5071598;28;20028;-61
2023/06/18 03:56:17;;;;;;;14.15;12.90;;;18.50;99.90;;;;;;5071603;28;20028;-61
2023/06/18 03:58:43;;;;;;;14.52;13.27;;;18.50;99.90;;;;;;5071322;28;20111;-62
2023/06/18 04:01:10;;;;;;;15.10;13.57;;;18.40;99.90;;;;;;5071401;28;20588;-61
2023/06/18 04:03:36;;;;;;;14.80;13.60;;;18.40;99.90;;;;;;5071838;28;20028;-62
2023/06/18 04:06:03;;;;;;;15.32;13.85;;;18.40;99.90;;;;;;5071465;28;20024;-62
2023/06/18 04:08:29;;;;;;;16.05;14.65;;;18.30;99.90;;;;;;5071313;28;20712;-61
2023/06/18 04:10:55;;;;;;;15.48;14.02;;;18.30;99.90;;;;;;5071368;28;20036;-62
2023/06/18 04:13:22;;;;;;;15.70;14.30;;;18.30;99.90;;;;;;5071290;28;20029;-61
2023/06/18 04:15:49;;;;;;;15.70;14.40;;;18.30;99.90;;;;;;5071330;28;20108;-61
2023/06/18 04:18:15;;;;;;;15.57;14.18;;;18.20;99.90;;;;;;5071428;28;20020;-61
2023/06/18 04:20:41;;;;;;;15.90;14.38;;;18.30;99.90;;;;;;5071708;28;20860;-61
2023/06/18 04:23:07;;;;;;;15.07;13.75;;;18.30;99.90;;;;;;5071307;28;20025;-61
2023/06/18 04:25:33;;;;;;;14.50;13.27;;;18.20;99.90;;;;;;5070910;28;20040;-61
2023/06/18 04:27:59;;;;;;;14.65;13.35;;;18.20;99.90;;;;;;5070564;28;20361;-61
2023/06/18 04:30:25;;;;;;;14.32;13.13;;;18.30;99.90;;;;;;5071462;28;20040;-61
2023/06/18 04:32:51;;;;;;;14.40;13.25;;;18.30;99.90;;;;;;5071116;28;20561;-61
2023/06/18 04:35:16;;;;;;;13.70;12.60;;;18.50;99.90;;;;;;5071420;28;20028;-61
2023/06/18 04:37:42;;;;;;;13.88;12.57;;;18.60;99.90;;;;;;5071140;28;20225;-61
2023/06/18 04:40:09;;;;;;;13.30;12.20;;;18.70;99.90;;;;;;5071062;28;20437;-62
2023/06/18 04:42:36;;;;;;;12.80;11.70;;;18.70;99.90;;;;;;5070750;28;20032;-61
2023/06/18 04:45:03;;;;;;;12.90;11.80;;;18.80;99.90;;;;;;5071456;28;20056;-61
2023/06/18 04:47:29;;;;;;;13.00;11.75;;;18.80;99.90;;;;;;5071107;28;20056;-61
2023/06/18 04:49:55;;;;;;;13.98;12.68;;;18.70;99.90;;;;;;5070887;28;20024;-61
2023/06/18 04:52:20;;;;;;;13.27;12.07;;;18.70;99.90;;;;;;5071014;28;20067;-61
2023/06/18 04:54:46;;;;;;;12.70;11.50;;;18.70;99.90;;;;;;5070961;28;20099;-61
2023/06/18 04:57:12;;;;;;;13.15;11.95;;;18.80;99.90;;;;;;5070518;28;20373;-61
2023/06/18 04:59:38;;;;;;;12.60;11.45;;;18.70;99.90;;;;;;5071257;28;20432;-61
2023/06/18 05:02:04;;;;;;;12.60;11.60;;;18.60;99.90;;;;;;5070787;28;20025;-61
2023/06/18 05:04:29;;;;;;;13.50;12.30;;;18.60;99.90;;;;;;5070812;28;20393;-61
2023/06/18 05:06:56;;;;;;;13.52;12.23;;;18.50;99.90;;;;;;5070895;28;20395;-61
2023/06/18 05:09:22;;;;;;;12.50;11.50;;;18.50;99.90;;;;;;5070997;28;20025;-61
2023/06/18 05:11:48;;;;;;;12.93;11.65;;;18.50;99.90;;;;;;5070363;28;20123;-61
2023/06/18 05:14:13;;;;;;;13.57;12.43;;;18.50;99.90;;;;;;5070721;28;20103;-61
2023/06/18 05:16:39;;;;;;;13.13;11.93;;;18.40;99.90;;;;;;5070754;28;20028;-61
2023/06/18 05:19:05;;;;;;;13.65;12.40;;;18.40;99.90;;;;;;5070593;28;20028;-61
2023/06/18 05:21:31;;;;;;;13.45;12.35;;;18.40;99.90;;;;;;5071330;28;20090;-62
2023/06/18 05:23:57;;;;;;;13.35;12.15;;;18.40;99.90;;;;;;5070374;28;20087;-61
2023/06/18 05:26:22;;;;;;;13.43;12.13;;;18.50;99.90;;;;;;5070324;28;20052;-61
2023/06/18 05:28:49;;;;;;;12.90;11.80;;;18.50;99.90;;;;;;5070746;28;20033;-61
2023/06/18 05:31:15;;;;;;;12.88;11.88;;;18.50;99.90;;;;;;5069307;28;20527;-61
2023/06/18 05:33:40;;;;;;;13.30;12.10;;;18.50;99.90;;;;;;5071057;28;20024;-61
2023/06/18 05:36:06;;;;;;;12.85;11.65;;;18.60;99.90;;;;;;5070580;28;20036;-61
2023/06/18 05:38:32;;;;;;;13.35;12.02;;;18.60;99.90;;;;;;5070364;28;20028;-60
2023/06/18 05:40:58;;;;;;;12.85;11.65;;;18.60;99.90;;;;;;5073031;28;20028;-61
2023/06/18 05:43:23;;;;;;;13.02;11.73;;;18.70;99.90;;;;;;5074671;28;20107;-61
2023/06/18 05:45:49;;;;;;;12.02;11.00;;;19.00;99.90;;;;;;5074158;28;20024;-61
2023/06/18 05:48:15;;;;;;;12.45;11.35;;;19.10;99.90;;;;;;5073944;28;20031;-61
2023/06/18 05:50:41;;;;;;;12.60;11.40;;;19.20;99.90;;;;;;5073912;28;20040;-61
2023/06/18 05:53:07;;;;;;;12.63;11.43;;;19.40;99.90;;;;;;5073839;28;20040;-61
2023/06/18 05:55:33;;;;;;;13.23;12.02;;;19.50;99.90;;;;;;5073542;28;20024;-61
2023/06/18 05:57:59;;;;;;;11.95;10.82;;;19.50;99.90;;;;;;5074046;28;20443;-61
2023/06/18 06:00:26;;;;;;;12.27;11.27;;;19.70;99.90;;;;;;5074007;28;20031;-62
2023/06/18 06:02:52;;;;;;;12.45;11.32;;;19.70;99.90;;;;;;5073745;28;20042;-61
2023/06/18 06:05:18;;;;;;;12.05;10.82;;;19.70;99.90;;;;;;5073712;28;20082;-61
2023/06/18 06:07:44;;;;;;;12.38;11.27;;;19.80;99.90;;;;;;5074056;28;20028;-61
2023/06/18 06:10:12;;;;;;;13.27;12.02;;;19.80;99.90;;;;;;5073250;28;20111;-61
2023/06/18 06:12:38;;;;;;;15.90;12.02;;;19.60;99.90;;;;;;5073612;28;20032;-61
2023/06/18 06:15:04;;;;;;;14.23;12.93;;;19.50;99.90;;;;;;5073738;28;20036;-61
2023/06/18 06:17:30;;;;;;;13.93;12.82;;;19.50;99.90;;;;;;5073609;28;20480;-61
2023/06/18 06:19:56;;;;;;;14.23;12.95;;;19.50;99.90;;;;;;5073471;28;20032;-61
2023/06/18 06:22:21;;;;;;;13.63;12.43;;;19.50;99.90;;;;;;5072468;28;20477;-61
2023/06/18 06:24:47;;;;;;;14.02;12.90;;;19.50;99.90;;;;;;5072892;28;20040;-61
2023/06/18 06:27:13;;;;;;;13.82;12.48;;;19.50;99.90;;;;;;5073250;28;20036;-61
2023/06/18 06:29:38;;;;;;;14.88;13.43;;;19.60;99.90;;;;;;5073575;28;20024;-61
2023/06/18 06:32:05;;;;;;;13.68;12.43;;;19.60;99.90;;;;;;5073208;28;20037;-61
2023/06/18 06:34:31;;;;;;;15.27;13.82;;;19.70;99.90;;;;;;5073207;28;20024;-61
2023/06/18 06:36:57;;;;;;;14.60;13.30;;;19.70;99.90;;;;;;5073006;28;20021;-61
2023/06/18 06:39:23;;;;;;;14.10;12.80;;;19.90;99.90;;;;;;5073076;28;20029;-61
2023/06/18 06:41:48;;;;;;;14.43;13.15;;;20.00;99.90;;;;;;5073115;28;20137;-62
2023/06/18 06:44:15;;;;;;;14.05;12.85;;;20.00;99.90;;;;;;5073048;28;20033;-61
2023/06/18 06:46:41;;;;;;;14.23;13.02;;;20.10;99.90;;;;;;5073049;28;20103;-61
2023/06/18 06:49:07;;;;;;;15.10;13.70;;;20.20;99.90;;;;;;5073231;28;20107;-62
2023/06/18 06:51:36;;;;;;;15.25;13.85;;;20.20;99.90;;;;;;5072469;28;20152;-62
2023/06/18 06:54:03;;;;;;;14.80;13.23;;;20.30;99.90;;;;;;5072634;28;20028;-62
2023/06/18 06:56:30;;;;;;;13.85;12.60;;;20.40;99.90;;;;;;5072796;28;20036;-62
2023/06/18 06:58:56;;;;;;;14.10;12.70;;;20.60;99.90;;;;;;5073007;28;20047;-61
2023/06/18 07:01:22;;;;;;;13.88;12.73;;;20.90;99.90;;;;;;5072787;28;20108;-61
2023/06/18 07:03:47;;;;;;;13.68;12.40;;;21.10;99.90;;;;;;5071144;28;20123;-61
2023/06/18 07:06:13;;;;;;;13.48;12.32;;;21.20;99.90;;;;;;5072525;28;20032;-62
2023/06/18 07:08:39;;;;;;;13.02;11.95;;;21.30;99.90;;;;;;5072207;28;20021;-61
2023/06/18 07:11:05;;;;;;;13.32;12.07;;;21.40;99.90;;;;;;5072677;28;20059;-62
2023/06/18 07:13:30;;;;;;;13.90;12.60;;;21.50;99.90;;;;;;5072438;28;20089;-61
2023/06/18 07:15:56;;;;;;;12.98;11.88;;;21.60;99.90;;;;;;5072374;28;20032;-61
2023/06/18 07:18:22;;;;;;;13.23;12.13;;;21.70;99.90;;;;;;5072137;28;20493;-62
2023/06/18 07:20:48;;;;;;;13.00;11.75;;;21.60;99.90;;;;;;5072323;28;20067;-61
2023/06/18 07:23:13;;;;;;;12.50;11.50;;;21.60;99.90;;;;;;5071750;28;20024;-62
2023/06/18 07:25:39;;;;;;;12.13;11.13;;;21.60;99.90;;;;;;5072462;28;20511;-64
2023/06/18 07:28:05;;;;;;;12.43;11.30;;;21.40;99.90;;;;;;5072100;28;20052;-61
2023/06/18 07:30:31;;;;;;;12.75;11.45;;;21.30;99.90;;;;;;5071971;28;20028;-61
2023/06/18 07:32:56;;;;;;;12.88;11.77;;;21.20;99.90;;;;;;5071848;28;20029;-61
2023/06/18 07:35:22;;;;;;;12.60;11.32;;;21.20;99.90;;;;;;5072306;28;20024;-61
2023/06/18 07:37:49;;;;;;;12.20;11.20;;;21.20;99.90;;;;;;5071691;28;20035;-60
2023/06/18 07:40:15;;;;;;;10.02;9.23;;;21.30;99.90;;;;;;5071810;28;20554;-60
2023/06/18 07:42:41;;;;;;;12.13;11.02;;;21.30;99.90;;;;;;5071504;28;20443;-59
2023/06/18 07:45:07;;;;;;;11.15;10.25;;;21.30;99.90;;;;;;5071301;28;20512;-60
2023/06/18 07:47:33;;;;;;;12.80;11.57;;;21.40;99.90;;;;;;5070943;28;20037;-60
2023/06/18 07:49:59;;;;;;;10.57;9.68;;;21.40;99.90;;;;;;5070835;28;20037;-59
2023/06/18 07:52:25;;;;;;;11.82;10.73;;;21.50;99.90;;;;;;5071625;28;20493;-59
2023/06/18 07:54:51;;;;;;;10.88;9.85;;;21.50;99.90;;;;;;5071312;28;20066;-60
2023/06/18 07:57:17;;;;;;;11.80;10.73;;;21.60;99.90;;;;;;5071922;28;20501;-60
2023/06/18 07:59:43;;;;;;;12.15;10.88;;;21.60;99.90;;;;;;5071538;28;20021;-60
2023/06/18 08:02:09;;;;;;;11.10;10.10;;;21.60;99.90;;;;;;5070667;28;20016;-60
2023/06/18 08:04:34;;;;;;;11.05;10.05;;;21.90;99.90;;;;;;5071084;28;20489;-59
2023/06/18 08:07:00;;;;;;;10.73;9.82;;;22.10;99.90;;;;;;5071029;28;20027;-61
2023/06/18 08:09:26;;;;;;;10.98;10.07;;;22.20;99.90;;;;;;5071377;28;20028;-61
2023/06/18 08:11:52;;;;;;;11.23;10.35;;;22.20;99.90;;;;;;5070397;28;20033;-61
2023/06/18 08:14:18;;;;;;;11.05;9.98;;;22.20;99.90;;;;;;5070049;28;20028;-61
2023/06/18 08:16:43;;;;;;;11.23;10.23;;;22.30;99.90;;;;;;5070123;28;20027;-61
2023/06/18 08:19:09;;;;;;;10.75;9.90;;;22.40;99.90;;;;;;5070415;28;20028;-60
2023/06/18 08:21:35;;;;;;;11.43;10.40;;;22.40;99.90;;;;;;5071180;28;20024;-60
2023/06/18 08:24:02;;;;;;;11.48;10.45;;;22.50;99.90;;;;;;5069909;28;20059;-60
2023/06/18 08:26:27;;;;;;;11.20;10.10;;;22.60;99.90;;;;;;5071049;28;20038;-60
2023/06/18 08:28:53;;;;;;;10.65;9.75;;;22.60;99.90;;;;;;5071209;28;20024;-60
2023/06/18 08:31:20;;;;;;;11.10;10.10;;;22.60;99.90;;;;;;5071417;28;20040;-60
2023/06/18 08:33:46;;;;;;;10.27;9.38;;;22.60;99.90;;;;;;5070682;28;20052;-60
2023/06/18 08:36:12;;;;;;;10.38;9.48;;;22.60;99.90;;;;;;5071108;28;20029;-60
2023/06/18 08:38:37;;;;;;;10.27;9.45;;;22.70;99.90;;;;;;5071440;28;20036;-61
2023/06/18 08:41:05;;;;;;;10.32;9.45;;;22.70;99.90;;;;;;5071012;28;20036;-61
2023/06/18 08:43:37;;;;;;;10.48;9.68;;;22.70;99.90;;;;;;5071060;28;20033;-61
2023/06/18 08:46:09;;;;;;;10.38;9.50;;;22.60;99.90;;;;;;5071003;28;20029;-61
2023/06/18 08:48:48;;;;;;;10.45;9.65;;;22.50;99.90;;;;;;5070669;28;20060;-61
2023/06/18 08:51:15;;;;;;;9.85;9.02;;;22.60;99.90;;;;;;5071216;28;20047;-61
2023/06/18 08:53:48;;;;;;;9.50;8.73;;;22.70;99.90;;;;;;5070983;28;20157;-61
2023/06/18 08:56:21;;;;;;;10.32;9.35;;;22.80;99.90;;;;;;5070457;28;20426;-61
2023/06/18 08:58:58;;;;;;;10.18;9.27;;;22.80;99.90;;;;;;5071331;28;20024;-61
2023/06/18 09:01:25;;;;;;;10.13;9.00;;;22.80;99.90;;;;;;5070793;28;20032;-61
2023/06/18 09:03:53;;;;;;;10.00;9.20;;;22.80;99.90;;;;;;5070667;28;20028;-60
2023/06/18 09:06:18;;;;;;;9.90;8.90;;;22.80;99.90;;;;;;5070881;28;20118;-61
2023/06/18 09:08:46;;;;;;;9.43;8.73;;;22.90;99.90;;;;;;5070704;28;20052;-60
2023/06/18 09:11:12;;;;;;;9.48;8.68;;;22.90;99.90;;;;;;5070417;28;20191;-60
2023/06/18 09:13:42;;;;;;;9.48;8.45;;;22.80;99.90;;;;;;5070755;28;20416;-60
2023/06/18 09:16:09;;;;;;;9.50;8.70;;;23.00;99.90;;;;;;5074193;28;20024;-61
2023/06/18 09:18:35;;;;;;;8.75;7.97;;;23.20;99.90;;;;;;5071677;28;20016;-60
2023/06/18 09:21:03;;;;;;;8.57;7.88;;;23.60;99.90;;;;;;5072770;28;20453;-59
2023/06/18 09:23:29;;;;;;;8.75;8.02;;;23.90;99.90;;;;;;5074095;28;20024;-60
2023/06/18 09:25:55;;;;;;;8.50;7.85;;;23.90;99.90;;;;;;5073487;28;20052;-60
2023/06/18 09:28:23;;;;;;;8.77;8.07;;;24.10;99.90;;;;;;5073567;28;20082;-60
2023/06/18 09:30:59;;;;;;;8.45;7.65;;;24.40;99.90;;;;;;5073873;28;20041;-60
2023/06/18 09:33:36;;;;;;;8.23;7.53;;;24.40;99.90;;;;;;5073559;28;20104;-59
2023/06/18 09:36:07;;;;;;;7.78;7.07;;;24.40;99.90;;;;;;5074001;28;20067;-60
2023/06/18 09:38:42;;;;;;;7.65;6.95;;;24.50;99.90;;;;;;5074113;28;20063;-59
2023/06/18 09:41:17;;;;;;;7.85;7.22;;;24.50;99.90;;;;;;5073797;28;20025;-60
2023/06/18 09:43:47;;;;;;;8.15;7.45;;;24.30;99.90;;;;;;5073735;28;20032;-60
2023/06/18 09:46:14;;;;;;;7.88;7.25;;;24.10;99.90;;;;;;5073348;28;20038;-60
2023/06/18 09:48:45;;;;;;;9.30;7.47;;;23.80;99.90;;;;;;5073591;28;20024;-59
2023/06/18 09:51:13;;;;;;;8.05;7.35;;;24.20;99.90;;;;;;5073979;28;20051;-60
2023/06/18 09:53:38;;;;;;;8.05;7.35;;;24.30;99.90;;;;;;5073572;28;20103;-60
2023/06/18 09:56:11;;;;;;;7.60;6.90;;;24.30;99.90;;;;;;5073702;28;20064;-60
2023/06/18 09:58:42;;;;;;;7.90;7.20;;;24.30;99.90;;;;;;5074107;28;20056;-59
2023/06/18 10:01:08;;;;;;;7.43;6.72;;;24.40;99.90;;;;;;5073182;28;20039;-60
2023/06/18 10:03:34;;;;;;;7.88;7.00;;;24.30;99.90;;;;;;5073145;28;20044;-60
2023/06/18 10:06:21;;;;;;;7.60;7.00;;;24.20;99.90;;;;;;5073449;28;20033;-60
2023/06/18 10:08:51;;;;;;;8.43;7.13;;;24.20;99.90;;;;;;5073085;28;20035;-60
2023/06/18 10:11:19;;;;;;;7.25;6.65;;;24.30;99.90;;;;;;5073705;28;20032;-59
2023/06/18 10:13:55;;;;;;;8.65;7.90;;;24.30;99.90;;;;;;5073078;28;20033;-60
2023/06/18 10:16:22;;;;;;;10.45;7.40;;;24.30;99.90;;;;;;5072806;28;20040;-60
2023/06/18 10:19:08;;;;;;;8.23;7.45;;;24.20;99.90;;;;;;5073134;28;20025;-60
2023/06/18 10:21:37;;;;;;;8.30;7.55;;;24.10;99.90;;;;;;5072860;28;20416;-60
2023/06/18 10:24:16;;;;;;;7.20;6.60;;;24.20;99.90;;;;;;5073000;28;20116;-60
2023/06/18 10:26:42;;;;;;;10.65;9.70;;;24.30;99.90;;;;;;5072518;28;20086;-60
2023/06/18 10:29:10;;;;;;;7.93;7.20;;;24.40;99.90;;;;;;5072626;28;20130;-60
2023/06/18 10:31:37;;;;;;;8.45;7.75;;;24.50;99.90;;;;;;5072877;28;20129;-60
2023/06/18 10:34:04;;;;;;;8.32;7.63;;;24.60;99.90;;;;;;5072762;28;20071;-60
2023/06/18 10:36:30;;;;;;;7.57;6.95;;;24.60;99.90;;;;;;5073139;28;20028;-59
2023/06/18 10:38:59;;;;;;;7.88;7.15;;;24.70;99.90;;;;;;5072179;28;20050;-59
2023/06/18 10:41:27;;;;;;;6.82;6.20;;;25.10;99.90;;;;;;5073234;28;20025;-60
2023/06/18 10:43:54;;;;;;;6.82;6.32;;;25.30;99.90;;;;;;5072565;28;20029;-60
2023/06/18 10:46:21;;;;;;;54.53;43.25;;;25.40;99.90;;;;;;5072679;28;20028;-60
2023/06/18 10:49:16;;;;;;;23.58;20.52;;;25.50;99.90;;;;;;5072683;28;20028;-59
2023/06/18 10:52:12;;;;;;;21.17;18.90;;;25.50;99.90;;;;;;5072479;28;20033;-60
2023/06/18 10:54:38;;;;;;;24.58;22.05;;;26.00;99.90;;;;;;5072250;28;20040;-59
2023/06/18 10:57:04;;;;;;;18.80;17.02;;;26.10;99.90;;;;;;5072402;28;20033;-60
2023/06/18 10:59:34;;;;;;;8.68;7.95;;;26.00;99.90;;;;;;5072300;28;20437;-60
2023/06/18 11:02:00;;;;;;;9.90;8.98;;;26.00;99.90;;;;;;5071626;28;20096;-60
2023/06/18 11:04:31;;;;;;;7.45;6.80;;;25.90;99.90;;;;;;5071944;28;20579;-60
2023/06/18 11:07:12;;;;;;;22.98;20.77;;;25.70;99.90;;;;;;5072191;28;20052;-59
2023/06/18 11:09:52;;;;;;;19.52;17.73;;;25.90;99.90;;;;;;5071956;28;20036;-60
2023/06/18 11:12:23;;;;;;;33.05;29.98;;;25.80;99.90;;;;;;5072148;28;20028;-59
2023/06/18 11:15:05;;;;;;;13.30;12.05;;;25.90;99.90;;;;;;5071696;28;20031;-60
2023/06/18 11:17:34;;;;;;;8.00;7.40;;;25.90;99.90;;;;;;5072117;28;20063;-61
2023/06/18 11:20:01;;;;;;;7.15;6.50;;;25.90;99.90;;;;;;5070661;28;20029;-60
2023/06/18 11:22:33;;;;;;;6.72;6.07;;;25.70;99.90;;;;;;5071900;28;20035;-60
2023/06/18 11:25:00;;;;;;;6.00;5.50;;;25.50;99.90;;;;;;5071509;28;20044;-60
2023/06/18 11:27:26;;;;;;;6.20;5.68;;;25.40;99.90;;;;;;5071800;28;20029;-60
2023/06/18 11:29:56;;;;;;;5.55;5.05;;;25.40;99.90;;;;;;5071882;28;20078;-59
2023/06/18 11:32:25;;;;;;;7.10;6.47;;;25.40;99.90;;;;;;5071842;28;20082;-60
2023/06/18 11:34:56;;;;;;;10.90;9.80;;;25.50;99.90;;;;;;5071286;28;20044;-60
2023/06/18 11:37:30;;;;;;;10.63;9.63;;;25.50;99.90;;;;;;5070931;28;20074;-60
2023/06/18 11:39:56;;;;;;;10.82;9.70;;;25.60;99.90;;;;;;5071230;28;20032;-60
2023/06/18 11:42:25;;;;;;;11.10;9.40;;;25.80;99.90;;;;;;5071687;28;20047;-60
2023/06/18 11:44:52;;;;;;;11.10;9.90;;;25.70;99.90;;;;;;5071534;28;20435;-62
2023/06/18 11:47:19;;;;;;;13.38;10.10;;;25.30;99.90;;;;;;5071410;28;20032;-60
2023/06/18 11:49:46;;;;;;;10.52;9.52;;;25.30;99.90;;;;;;5071013;28;20369;-61
2023/06/18 11:52:16;;;;;;;11.50;10.27;;;25.40;99.90;;;;;;5071367;28;20067;-60
2023/06/18 11:54:43;;;;;;;10.43;9.43;;;25.40;99.90;;;;;;5071225;28;20042;-60
2023/06/18 11:57:13;;;;;;;16.38;9.73;;;25.70;99.90;;;;;;5070913;28;20056;-60
2023/06/18 11:59:40;;;;;;;10.30;9.30;;;25.50;99.90;;;;;;5070858;28;20051;-60
2023/06/18 12:02:37;;;;;;;10.60;9.63;;;25.70;99.90;;;;;;5070913;28;20408;-60
2023/06/18 12:05:04;;;;;;;10.00;9.05;;;25.80;99.90;;;;;;5062130;28;20037;-60
2023/06/18 12:07:30;;;;;;;10.68;9.68;;;25.90;99.90;;;;;;5071461;28;20032;-61
2023/06/18 12:09:58;;;;;;;10.13;9.05;;;26.10;99.90;;;;;;5070426;28;20540;-60
2023/06/18 12:12:41;;;;;;;10.05;9.00;;;26.30;99.90;;;;;;5070932;28;20119;-60
2023/06/18 12:15:12;;;;;;;10.57;9.55;;;26.30;99.90;;;;;;5070852;28;20039;-60
2023/06/18 12:17:58;;;;;;;9.98;9.07;;;26.40;99.90;;;;;;5071012;28;20046;-60
2023/06/18 12:20:28;;;;;;;9.45;8.57;;;26.20;99.90;;;;;;5070689;28;20051;-60
2023/06/18 12:23:00;;;;;;;11.68;8.70;;;26.30;99.90;;;;;;5069617;28;20063;-60
2023/06/18 12:25:27;;;;;;;8.98;8.10;;;26.20;99.90;;;;;;5070310;28;20043;-59
2023/06/18 12:27:59;;;;;;;8.80;7.90;;;26.10;99.90;;;;;;5071034;28;20090;-60
2023/06/18 12:30:34;;;;;;;8.38;7.70;;;25.90;99.90;;;;;;5070660;28;20024;-60
2023/06/18 12:33:11;;;;;;;8.38;7.57;;;26.10;99.90;;;;;;5070812;28;20036;-60
2023/06/18 12:35:40;;;;;;;8.05;7.25;;;26.10;99.90;;;;;;5070720;28;20125;-60
2023/06/18 12:38:09;;;;;;;8.32;7.63;;;26.20;99.90;;;;;;5070768;28;20043;-60